Station History

Weather Underground - logo

Station Historical Data
 
Daily Summary for November 20, 2018 Units:  Metric    English   Both
« Previous Day
Next Day »
Daily Weekly Monthly Yearly Custom
  Current: High: Low: Average:
Temperature: 2.7 °C 5.2 °C 2.7 °C 3.8 °C
Dew Point: 0.9 °C 3.9 °C 0.9 °C 2 °C
Humidity: 88 % 91 % 84 % 88 %
Wind Speed: 0 km/h 1.9 km/h 0 km/h 0 km/h
Wind Gust: 0 km/h 0 km/h - -
Wind:Calm - - NNE
Pressure: 1016.5 hPa 1017.2 hPa 1016.1 hPa -
Precipitation: 0 mm      
Historical Graphs
 
 
Tabular Data for November 20, 2018
Time Temperature Dew Point Pressure Wind Wind Speed Wind Gust Humidity Rainfall Rate (Hourly)
00:04 5.1 °C 3.4 °C 1017.2 hPa Calm     89 % 0 mm
00:09 5.1 °C 3.4 °C 1017.2 hPa Calm     89 % 0 mm
00:14 5 °C 3.3 °C 1017.2 hPa Calm     89 % 0 mm
00:19 5.1 °C 3.6 °C 1016.8 hPa Calm     90 % 0 mm
00:24 5.2 °C 3.8 °C 1017.2 hPa Calm     91 % 0 mm
00:29 5.2 °C 3.9 °C 1017.2 hPa Calm     91 % 0 mm
00:34 5.2 °C 3.7 °C 1016.8 hPa Calm     90 % 0 mm
00:39 5.1 °C 3.6 °C 1016.8 hPa Calm     90 % 0 mm
00:44 5.1 °C 3.6 °C 1016.8 hPa Calm     90 % 0 mm
00:49 5 °C 3.5 °C 1016.8 hPa Calm     90 % 0 mm
00:54 4.8 °C 3.2 °C 1016.8 hPa Calm     89 % 0 mm
00:59 4.4 °C 2.4 °C 1016.8 hPa Calm     87 % 0 mm
01:04 4.3 °C 2.4 °C 1016.8 hPa Calm     88 % 0 mm
01:09 4.1 °C 2.4 °C 1016.8 hPa Calm     89 % 0 mm
01:14 4 °C 2.2 °C 1016.8 hPa Calm     88 % 0 mm
01:19 3.9 °C 2.3 °C 1016.5 hPa Calm     89 % 0 mm
01:24 4 °C 2.5 °C 1016.5 hPa Calm     90 % 0 mm
01:29 4.2 °C 2.6 °C 1016.5 hPa Calm     89 % 0 mm
01:34 4.4 °C 2.4 °C 1016.5 hPa Calm     87 % 0 mm
01:39 4.4 °C 2.3 °C 1016.5 hPa Calm     86 % 0 mm
01:44 4.2 °C 1.9 °C 1016.5 hPa Calm     85 % 0 mm
01:49 3.9 °C 1.9 °C 1016.5 hPa Calm     87 % 0 mm
01:54 3.8 °C 2 °C 1016.5 hPa Calm     88 % 0 mm
01:59 4.1 °C 2.1 °C 1016.1 hPa NNE 1.9 km/h   87 % 0 mm
02:04 4.2 °C 2.1 °C 1016.1 hPa Calm     86 % 0 mm
02:09 4.3 °C 2.2 °C 1016.1 hPa Calm     86 % 0 mm
02:14 4.3 °C 2.1 °C 1016.1 hPa Calm     85 % 0 mm
02:19 4 °C 1.6 °C 1016.1 hPa Calm     84 % 0 mm
02:24 3.6 °C 1.3 °C 1016.5 hPa Calm     85 % 0 mm
02:29 3.3 °C 1.1 °C 1016.1 hPa Calm     85 % 0 mm
02:34 3.1 °C 1 °C 1016.1 hPa Calm     86 % 0 mm
02:39 2.9 °C 1 °C 1016.1 hPa Calm     87 % 0 mm
02:44 3 °C 1.2 °C 1016.5 hPa Calm     88 % 0 mm
02:49 2.9 °C 1.2 °C 1016.5 hPa Calm     88 % 0 mm
02:55 2.9 °C 1.1 °C 1016.5 hPa Calm     88 % 0 mm
02:59 2.8 °C 1 °C 1016.5 hPa Calm     88 % 0 mm
03:04 2.8 °C 1 °C 1016.5 hPa Calm     88 % 0 mm
03:09 2.8 °C 1.2 °C 1016.5 hPa NNE 1.9 km/h   89 % 0 mm
03:14 2.9 °C 1.1 °C 1016.5 hPa Calm     88 % 0 mm
03:19 2.8 °C 1.1 °C 1016.5 hPa Calm     88 % 0 mm
03:24 2.8 °C 1.1 °C 1016.5 hPa Calm     88 % 0 mm
03:29 2.8 °C 1 °C 1016.5 hPa Calm     88 % 0 mm
03:34 2.9 °C 1.1 °C 1016.5 hPa Calm     88 % 0 mm
03:39 2.9 °C 1.1 °C 1016.5 hPa Calm     88 % 0 mm
03:44 2.8 °C 1.1 °C 1016.5 hPa Calm     88 % 0 mm
03:49 2.8 °C 1.1 °C 1016.5 hPa Calm     88 % 0 mm
03:54 2.8 °C 1 °C 1016.5 hPa Calm     88 % 0 mm
03:59 2.7 °C 0.9 °C 1016.5 hPa Calm     88 % 0 mm
04:04 2.7 °C 0.9 °C 1016.5 hPa Calm     88 % 0 mm
Park Place, Exeter, Tulare County, California, USA
Compliments of Weather Underground - 1.5 mb